Time;durP1;ratioP1;P1;durP2;ratioP2;P2;SDS_P1;SDS_P2;PMS_P1;PMS_P2;Temp;Humidity;BMP_temperature;BMP_pressure;BME280_temperature;BME280_humidity;BME280_pressure;Samples;Min_cycle;Max_cycle;Signal;HPM_P1;HPM_P2
2021/08/30 00:02:24;;;;;;;4.33;3.93;;;;;;;;;;5120546;28;20233;-63
2021/08/30 00:04:52;;;;;;;3.13;2.23;;;;;;;;;;5120027;28;20935;-63
2021/08/30 00:07:20;;;;;;;4.10;2.23;;;;;;;;;;5120164;28;20216;-63
2021/08/30 00:09:48;;;;;;;3.80;2.40;;;;;;;;;;5120033;27;20223;-63
2021/08/30 00:12:16;;;;;;;3.90;2.30;;;;;;;;;;5120414;28;20363;-63
2021/08/30 00:14:45;;;;;;;4.20;2.10;;;;;;;;;;5120545;28;20307;-63
2021/08/30 00:17:13;;;;;;;3.67;2.20;;;;;;;;;;5120473;28;20201;-64
2021/08/30 00:19:41;;;;;;;3.03;2.00;;;;;;;;;;5120377;28;20211;-64
2021/08/30 00:22:09;;;;;;;3.30;2.23;;;;;;;;;;5119992;27;20234;-63
2021/08/30 00:24:37;;;;;;;3.13;2.40;;;;;;;;;;5113703;28;20228;-63
2021/08/30 00:27:05;;;;;;;1.73;1.60;;;;;;;;;;5099663;28;20241;-63
2021/08/30 00:29:33;;;;;;;2.43;1.97;;;;;;;;;;5099280;28;20598;-63
2021/08/30 00:32:03;;;;;;;2.30;2.10;;;;;;;;;;5099091;28;20668;-63
2021/08/30 00:34:31;;;;;;;2.40;2.20;;;;;;;;;;5099565;28;20696;-63
2021/08/30 00:36:58;;;;;;;2.43;1.97;;;;;;;;;;5099354;28;20210;-62
2021/08/30 00:39:29;;;;;;;2.27;1.83;;;;;;;;;;5099182;28;20210;-63
2021/08/30 00:41:57;;;;;;;3.57;2.07;;;;;;;;;;5099374;28;20244;-63
2021/08/30 00:44:25;;;;;;;2.23;1.97;;;;;;;;;;5099018;28;20232;-67
2021/08/30 00:46:53;;;;;;;3.13;2.37;;;;;;;;;;5099221;28;20215;-63
2021/08/30 00:49:22;;;;;;;2.80;2.40;;;;;;;;;;5102881;28;20211;-63
2021/08/30 00:51:51;;;;;;;3.13;2.10;;;;;;;;;;5106437;27;20204;-63
2021/08/30 00:54:19;;;;;;;1.80;1.70;;;;;;;;;;5120116;27;20312;-64
2021/08/30 00:56:47;;;;;;;5.63;2.90;;;;;;;;;;5119395;28;20569;-63
2021/08/30 00:59:15;;;;;;;2.10;1.90;;;;;;;;;;5119528;28;20212;-63
2021/08/30 01:01:43;;;;;;;2.57;2.30;;;;;;;;;;5119424;28;20213;-63
2021/08/30 01:04:12;;;;;;;2.10;1.90;;;;;;;;;;5119017;28;20237;-63
2021/08/30 01:06:43;;;;;;;3.00;2.33;;;;;;;;;;5119426;28;20226;-63
2021/08/30 01:09:15;;;;;;;2.53;1.93;;;;;;;;;;5119366;28;20287;-63
2021/08/30 01:11:47;;;;;;;3.53;2.30;;;;;;;;;;5119017;28;20728;-63
2021/08/30 01:14:16;;;;;;;3.33;2.30;;;;;;;;;;5119200;28;20225;-63
2021/08/30 01:16:44;;;;;;;3.17;2.07;;;;;;;;;;5119062;28;20215;-63
2021/08/30 01:19:15;;;;;;;2.87;2.03;;;;;;;;;;5119060;28;20205;-63
2021/08/30 01:21:45;;;;;;;2.80;2.00;;;;;;;;;;5118943;28;20205;-63
2021/08/30 01:24:14;;;;;;;3.20;2.33;;;;;;;;;;5118523;28;20228;-63
2021/08/30 01:26:44;;;;;;;2.60;2.00;;;;;;;;;;5108719;27;20216;-63
2021/08/30 01:29:15;;;;;;;2.30;1.83;;;;;;;;;;5097889;28;20209;-63
2021/08/30 01:31:45;;;;;;;2.50;2.03;;;;;;;;;;5098251;28;20227;-63
2021/08/30 01:34:15;;;;;;;2.30;2.07;;;;;;;;;;5098401;28;20228;-63
2021/08/30 01:36:44;;;;;;;2.57;1.97;;;;;;;;;;5098157;28;20205;-63
2021/08/30 01:39:12;;;;;;;2.53;2.00;;;;;;;;;;5098025;28;20209;-63
2021/08/30 01:41:40;;;;;;;3.37;1.67;;;;;;;;;;5098347;28;20206;-63
2021/08/30 01:44:09;;;;;;;3.53;1.63;;;;;;;;;;5097661;28;20716;-63
2021/08/30 01:46:38;;;;;;;3.67;2.17;;;;;;;;;;5098146;28;20216;-63
2021/08/30 01:49:07;;;;;;;2.17;1.97;;;;;;;;;;5099779;28;20244;-63
2021/08/30 01:51:37;;;;;;;4.43;1.93;;;;;;;;;;5104364;28;20240;-64
2021/08/30 01:54:05;;;;;;;4.13;1.80;;;;;;;;;;5118406;28;20225;-63
2021/08/30 01:56:34;;;;;;;2.93;1.73;;;;;;;;;;5118568;28;20208;-63
2021/08/30 02:01:48;;;;;;;2.40;2.00;;;;;;;;;;5118369;28;20211;-63
2021/08/30 02:04:16;;;;;;;2.37;2.07;;;;;;;;;;5117859;28;20239;-63
2021/08/30 02:06:45;;;;;;;2.70;2.23;;;;;;;;;;5117889;28;20684;-63
2021/08/30 02:09:13;;;;;;;4.87;2.17;;;;;;;;;;5118402;28;20201;-63
2021/08/30 02:11:41;;;;;;;2.30;2.10;;;;;;;;;;5118750;28;20211;-63
2021/08/30 02:14:09;;;;;;;3.43;2.20;;;;;;;;;;5117297;28;20221;-63
2021/08/30 02:16:38;;;;;;;2.33;2.13;;;;;;;;;;5118008;28;20203;-63
2021/08/30 02:19:11;;;;;;;2.33;1.93;;;;;;;;;;5118186;28;20209;-63
2021/08/30 02:21:41;;;;;;;3.27;2.33;;;;;;;;;;5118186;28;20201;-63
2021/08/30 02:24:14;;;;;;;3.70;2.10;;;;;;;;;;5117952;28;20238;-63
2021/08/30 02:26:44;;;;;;;3.40;2.27;;;;;;;;;;5107692;28;20270;-63
2021/08/30 02:29:13;;;;;;;4.00;1.97;;;;;;;;;;5097227;28;20296;-62
2021/08/30 02:31:41;;;;;;;3.20;2.47;;;;;;;;;;5097491;28;20205;-63
2021/08/30 02:34:10;;;;;;;4.63;2.23;;;;;;;;;;5105857;28;20212;-63
2021/08/30 02:36:38;;;;;;;6.33;2.47;;;;;;;;;;5106942;28;20204;-63
2021/08/30 02:39:07;;;;;;;3.03;2.40;;;;;;;;;;5105332;28;20207;-63
2021/08/30 02:41:36;;;;;;;5.60;2.83;;;;;;;;;;5099825;28;20202;-62
2021/08/30 02:44:05;;;;;;;3.27;2.50;;;;;;;;;;5095008;28;20230;-62
2021/08/30 02:46:33;;;;;;;6.07;2.37;;;;;;;;;;5096938;28;20208;-62
2021/08/30 02:49:02;;;;;;;4.50;2.23;;;;;;;;;;5098329;28;20233;-62
2021/08/30 02:51:30;;;;;;;3.73;2.50;;;;;;;;;;5103531;28;20237;-62
2021/08/30 02:53:59;;;;;;;4.23;1.97;;;;;;;;;;5112665;28;20755;-62
2021/08/30 02:56:27;;;;;;;2.27;2.07;;;;;;;;;;5106466;28;20254;-62
2021/08/30 02:58:57;;;;;;;2.33;2.10;;;;;;;;;;5103105;28;20202;-62
2021/08/30 03:01:26;;;;;;;3.03;2.37;;;;;;;;;;5104441;28;20209;-62
2021/08/30 03:03:55;;;;;;;4.67;2.40;;;;;;;;;;5105296;28;20227;-62
2021/08/30 03:06:23;;;;;;;6.37;2.37;;;;;;;;;;5102832;28;20217;-62
2021/08/30 03:08:51;;;;;;;3.70;2.60;;;;;;;;;;5107042;28;20200;-61
2021/08/30 03:11:20;;;;;;;3.27;2.30;;;;;;;;;;5106616;28;20280;-62
2021/08/30 03:13:48;;;;;;;5.00;2.17;;;;;;;;;;5104589;28;20217;-63
2021/08/30 03:16:19;;;;;;;5.53;3.00;;;;;;;;;;5105858;28;20197;-62
2021/08/30 03:18:47;;;;;;;7.10;2.40;;;;;;;;;;5106990;28;20198;-62
2021/08/30 03:21:15;;;;;;;2.53;2.20;;;;;;;;;;5106997;28;20197;-62
2021/08/30 03:23:44;;;;;;;5.20;2.77;;;;;;;;;;5105095;28;20239;-62
2021/08/30 03:26:13;;;;;;;5.97;2.30;;;;;;;;;;5105991;28;20660;-62
2021/08/30 03:28:41;;;;;;;2.60;2.33;;;;;;;;;;5107491;28;20197;-62
2021/08/30 03:31:10;;;;;;;3.33;2.40;;;;;;;;;;5107714;28;20196;-62
2021/08/30 03:33:39;;;;;;;3.27;2.50;;;;;;;;;;5107508;28;20199;-61
2021/08/30 03:36:08;;;;;;;2.83;2.30;;;;;;;;;;5107737;28;20207;-62
2021/08/30 03:38:36;;;;;;;3.93;2.10;;;;;;;;;;5111011;28;20209;-62
2021/08/30 03:41:05;;;;;;;3.70;2.90;;;;;;;;;;5109908;28;20563;-62
2021/08/30 03:43:34;;;;;;;3.13;2.47;;;;;;;;;;5107830;28;20210;-62
2021/08/30 03:46:02;;;;;;;3.37;2.87;;;;;;;;;;5108898;28;20198;-62
2021/08/30 03:48:31;;;;;;;4.17;2.70;;;;;;;;;;5105672;28;20209;-62
2021/08/30 03:51:01;;;;;;;3.80;2.30;;;;;;;;;;5109454;28;20240;-62
2021/08/30 03:53:29;;;;;;;4.83;2.97;;;;;;;;;;5109093;28;20197;-62
2021/08/30 03:55:58;;;;;;;3.23;2.60;;;;;;;;;;5098578;28;20205;-62
2021/08/30 03:58:27;;;;;;;4.07;2.50;;;;;;;;;;5098323;28;20292;-62
2021/08/30 04:00:55;;;;;;;4.10;2.50;;;;;;;;;;5099755;28;20210;-62
2021/08/30 04:03:24;;;;;;;4.47;2.30;;;;;;;;;;5099569;28;20259;-62
2021/08/30 04:05:52;;;;;;;4.40;2.10;;;;;;;;;;5099701;28;20312;-61
2021/08/30 04:08:22;;;;;;;4.30;2.20;;;;;;;;;;5099910;28;20213;-61
2021/08/30 04:10:50;;;;;;;3.70;2.57;;;;;;;;;;5099985;28;20215;-62
2021/08/30 04:13:18;;;;;;;2.40;2.17;;;;;;;;;;5099846;28;20288;-62
2021/08/30 04:15:46;;;;;;;2.73;2.53;;;;;;;;;;5099689;28;20226;-62
2021/08/30 04:18:14;;;;;;;3.63;2.53;;;;;;;;;;5099450;28;20209;-62
2021/08/30 04:20:42;;;;;;;3.87;2.23;;;;;;;;;;5099604;28;20216;-62
2021/08/30 04:23:10;;;;;;;5.07;2.60;;;;;;;;;;5099675;28;20206;-64
2021/08/30 04:25:39;;;;;;;3.80;2.23;;;;;;;;;;5112226;28;20225;-63
2021/08/30 04:28:07;;;;;;;3.70;2.23;;;;;;;;;;5099735;28;20212;-63
2021/08/30 04:30:36;;;;;;;5.20;2.50;;;;;;;;;;5099037;28;20546;-62
2021/08/30 04:33:09;;;;;;;2.97;2.10;;;;;;;;;;5099703;28;20205;-63
2021/08/30 04:35:37;;;;;;;3.53;2.33;;;;;;;;;;5099322;28;20222;-64
2021/08/30 04:38:05;;;;;;;3.53;2.53;;;;;;;;;;5098774;28;20216;-63
2021/08/30 04:40:33;;;;;;;3.90;2.57;;;;;;;;;;5099383;28;20209;-62
2021/08/30 04:43:02;;;;;;;5.33;2.67;;;;;;;;;;5099131;28;20209;-63
2021/08/30 04:45:31;;;;;;;4.10;2.60;;;;;;;;;;5098817;28;20668;-63
2021/08/30 04:47:59;;;;;;;2.30;2.10;;;;;;;;;;5102425;28;20250;-63
2021/08/30 04:50:26;;;;;;;4.53;2.20;;;;;;;;;;5103311;28;20711;-61
2021/08/30 04:52:54;;;;;;;4.13;2.40;;;;;;;;;;5102921;28;20208;-64
2021/08/30 04:55:23;;;;;;;4.97;2.93;;;;;;;;;;5102682;28;20249;-64
2021/08/30 04:57:50;;;;;;;2.70;2.33;;;;;;;;;;5113284;28;20211;-65
2021/08/30 05:00:20;;;;;;;2.83;2.43;;;;;;;;;;5102692;28;20213;-65
2021/08/30 05:02:48;;;;;;;3.47;2.30;;;;;;;;;;5112244;28;20204;-64
2021/08/30 05:05:17;;;;;;;3.80;2.43;;;;;;;;;;5104527;28;20329;-65
2021/08/30 05:07:46;;;;;;;4.27;2.33;;;;;;;;;;5113463;28;20213;-65
2021/08/30 05:10:14;;;;;;;3.10;2.37;;;;;;;;;;5103260;28;20279;-63
2021/08/30 05:12:42;;;;;;;4.40;3.20;;;;;;;;;;5108282;28;20635;-62
2021/08/30 05:15:11;;;;;;;4.10;2.17;;;;;;;;;;5111332;28;20219;-65
2021/08/30 05:17:40;;;;;;;4.13;3.40;;;;;;;;;;5109024;28;20217;-62
2021/08/30 05:20:09;;;;;;;6.40;3.03;;;;;;;;;;5110181;28;20205;-62
2021/08/30 05:22:37;;;;;;;3.97;2.40;;;;;;;;;;5107224;28;20217;-62
2021/08/30 05:25:05;;;;;;;5.73;2.67;;;;;;;;;;5108702;28;20227;-62
2021/08/30 05:27:33;;;;;;;3.67;2.30;;;;;;;;;;5105255;28;20212;-63
2021/08/30 05:30:01;;;;;;;3.97;2.63;;;;;;;;;;5105662;28;20205;-64
2021/08/30 05:32:31;;;;;;;3.97;2.50;;;;;;;;;;5108553;28;20193;-64
2021/08/30 05:35:00;;;;;;;4.33;2.30;;;;;;;;;;5103458;28;20232;-64
2021/08/30 05:37:28;;;;;;;4.73;2.80;;;;;;;;;;5101882;28;20206;-63
2021/08/30 05:39:56;;;;;;;3.80;2.30;;;;;;;;;;5105610;28;20549;-63
2021/08/30 05:42:24;;;;;;;4.13;2.73;;;;;;;;;;5108859;28;20227;-61
2021/08/30 05:44:52;;;;;;;3.97;2.60;;;;;;;;;;5111999;28;20223;-63
2021/08/30 05:47:20;;;;;;;3.30;2.80;;;;;;;;;;5109158;28;20208;-62
2021/08/30 05:49:48;;;;;;;4.17;2.83;;;;;;;;;;5104806;28;20256;-62
2021/08/30 05:52:17;;;;;;;7.77;2.57;;;;;;;;;;5107650;28;20570;-61
2021/08/30 05:54:45;;;;;;;4.83;2.63;;;;;;;;;;5104749;28;20226;-62
2021/08/30 05:57:13;;;;;;;5.07;3.10;;;;;;;;;;5108179;28;20219;-62
2021/08/30 05:59:41;;;;;;;4.47;2.87;;;;;;;;;;5103097;28;20203;-61
2021/08/30 06:02:12;;;;;;;3.20;2.60;;;;;;;;;;5105163;28;20281;-62
2021/08/30 06:04:41;;;;;;;5.73;2.97;;;;;;;;;;5109732;28;20213;-62
2021/08/30 06:07:09;;;;;;;4.03;2.93;;;;;;;;;;5099888;28;20280;-62
2021/08/30 06:09:39;;;;;;;4.17;2.60;;;;;;;;;;5100825;28;20213;-62
2021/08/30 06:12:07;;;;;;;4.20;2.97;;;;;;;;;;5107993;28;20619;-61
2021/08/30 06:14:35;;;;;;;3.10;2.50;;;;;;;;;;5114532;28;20236;-61
2021/08/30 06:17:04;;;;;;;6.33;2.90;;;;;;;;;;5106686;28;20202;-61
2021/08/30 06:19:32;;;;;;;4.57;2.50;;;;;;;;;;5100957;28;20687;-62
2021/08/30 06:22:00;;;;;;;3.83;2.80;;;;;;;;;;5100656;28;20209;-61
2021/08/30 06:24:31;;;;;;;6.57;3.10;;;;;;;;;;5103637;28;20242;-61
2021/08/30 06:27:01;;;;;;;3.37;2.40;;;;;;;;;;5113482;28;20269;-62
2021/08/30 06:29:29;;;;;;;3.07;2.47;;;;;;;;;;5104548;28;20726;-61
2021/08/30 06:31:58;;;;;;;10.40;3.53;;;;;;;;;;5110933;28;20583;-62
2021/08/30 06:34:26;;;;;;;5.30;3.63;;;;;;;;;;5111010;28;20278;-61
2021/08/30 06:36:54;;;;;;;5.13;2.97;;;;;;;;;;5108322;28;20193;-61
2021/08/30 06:39:23;;;;;;;4.63;3.10;;;;;;;;;;5101756;28;20206;-61
2021/08/30 06:41:51;;;;;;;7.53;3.27;;;;;;;;;;5104197;28;20206;-62
2021/08/30 06:44:20;;;;;;;3.00;2.53;;;;;;;;;;5102301;28;20701;-61
2021/08/30 06:46:49;;;;;;;7.03;3.03;;;;;;;;;;5096961;28;20312;-61
2021/08/30 06:49:17;;;;;;;4.50;3.00;;;;;;;;;;5099309;28;20204;-61
2021/08/30 06:51:46;;;;;;;5.23;3.03;;;;;;;;;;5111318;28;20232;-61
2021/08/30 06:54:18;;;;;;;4.43;3.77;;;;;;;;;;5103480;28;20229;-61
2021/08/30 06:56:46;;;;;;;4.27;3.07;;;;;;;;;;5106459;28;20250;-61
2021/08/30 06:59:14;;;;;;;5.13;2.73;;;;;;;;;;5105400;28;20209;-61
2021/08/30 07:01:44;;;;;;;5.00;2.70;;;;;;;;;;5110242;28;20292;-61
2021/08/30 07:04:13;;;;;;;5.43;2.90;;;;;;;;;;5112432;28;20230;-62
2021/08/30 07:06:41;;;;;;;4.83;2.97;;;;;;;;;;5107971;28;20230;-61
2021/08/30 07:09:09;;;;;;;4.73;2.53;;;;;;;;;;5114293;28;20208;-61
2021/08/30 07:11:37;;;;;;;5.80;2.77;;;;;;;;;;5115261;28;20205;-61
2021/08/30 07:14:07;;;;;;;4.57;3.30;;;;;;;;;;5104865;28;20591;-61
2021/08/30 07:16:35;;;;;;;4.00;2.77;;;;;;;;;;5109682;28;20628;-61
2021/08/30 07:19:05;;;;;;;7.00;3.00;;;;;;;;;;5107642;28;20698;-61
2021/08/30 07:21:33;;;;;;;3.50;2.93;;;;;;;;;;5108767;28;20209;-61
2021/08/30 07:24:01;;;;;;;4.80;2.50;;;;;;;;;;5109839;28;20235;-61
2021/08/30 07:26:29;;;;;;;9.93;3.57;;;;;;;;;;5104660;28;20223;-61
2021/08/30 07:28:57;;;;;;;8.93;3.00;;;;;;;;;;5107814;28;20292;-61
2021/08/30 07:31:26;;;;;;;6.67;4.90;;;;;;;;;;5105481;28;20209;-61
2021/08/30 07:33:55;;;;;;;5.43;2.83;;;;;;;;;;5105611;28;20234;-61
2021/08/30 07:36:25;;;;;;;3.97;2.63;;;;;;;;;;5103948;28;20240;-61
2021/08/30 07:38:53;;;;;;;3.63;2.30;;;;;;;;;;5102288;28;20201;-61
2021/08/30 07:41:21;;;;;;;4.90;2.50;;;;;;;;;;5106668;28;20296;-61
2021/08/30 07:43:49;;;;;;;4.63;2.80;;;;;;;;;;5116224;27;20225;-62
2021/08/30 07:46:20;;;;;;;4.70;2.30;;;;;;;;;;5115576;28;20248;-62
2021/08/30 07:48:52;;;;;;;2.63;2.20;;;;;;;;;;5114323;28;20698;-61
2021/08/30 07:51:20;;;;;;;4.33;2.63;;;;;;;;;;5104287;28;20266;-61
2021/08/30 07:53:50;;;;;;;7.73;2.50;;;;;;;;;;5111830;28;20228;-61
2021/08/30 07:56:18;;;;;;;3.60;2.67;;;;;;;;;;5114621;28;20200;-62
2021/08/30 07:58:46;;;;;;;4.07;2.03;;;;;;;;;;5110051;28;20239;-62
2021/08/30 08:01:14;;;;;;;3.20;2.17;;;;;;;;;;5104491;28;20205;-62
2021/08/30 08:03:42;;;;;;;5.40;2.17;;;;;;;;;;5108037;28;20219;-59
2021/08/30 08:06:11;;;;;;;4.90;2.00;;;;;;;;;;5107083;28;20217;-60
2021/08/30 08:08:42;;;;;;;3.47;2.10;;;;;;;;;;5110096;28;20212;-61
2021/08/30 08:11:12;;;;;;;2.60;1.87;;;;;;;;;;5109879;28;20205;-64
2021/08/30 08:13:41;;;;;;;3.37;2.20;;;;;;;;;;5107660;28;20213;-61
2021/08/30 08:16:09;;;;;;;5.17;2.17;;;;;;;;;;5110500;27;20297;-61
2021/08/30 08:18:37;;;;;;;2.80;2.03;;;;;;;;;;5107578;28;20279;-63
2021/08/30 08:21:07;;;;;;;3.97;2.33;;;;;;;;;;5107177;28;20233;-64
2021/08/30 08:23:36;;;;;;;3.00;1.60;;;;;;;;;;5105490;28;20202;-61
2021/08/30 08:26:05;;;;;;;3.57;1.77;;;;;;;;;;5109760;28;20232;-62
2021/08/30 08:28:35;;;;;;;3.20;1.70;;;;;;;;;;5103117;28;20215;-62
2021/08/30 08:31:04;;;;;;;2.40;2.00;;;;;;;;;;5098676;28;20233;-62
2021/08/30 08:33:32;;;;;;;3.73;3.37;;;;;;;;;;5098549;28;20665;-61
2021/08/30 08:36:01;;;;;;;2.33;2.10;;;;;;;;;;5098730;28;20891;-60
2021/08/30 08:38:29;;;;;;;5.13;1.90;;;;;;;;;;5098562;28;20276;-60
2021/08/30 08:40:59;;;;;;;3.53;2.00;;;;;;;;;;5098806;28;20201;-61
2021/08/30 08:43:29;;;;;;;4.00;2.00;;;;;;;;;;5099329;28;20255;-60
2021/08/30 08:45:59;;;;;;;3.77;2.00;;;;;;;;;;5113687;28;20232;-60
2021/08/30 08:48:27;;;;;;;2.30;2.07;;;;;;;;;;5110440;28;20308;-60
2021/08/30 08:50:56;;;;;;;3.00;1.90;;;;;;;;;;5109846;28;20237;-60
2021/08/30 08:53:25;;;;;;;2.87;2.23;;;;;;;;;;5109706;28;20261;-60
2021/08/30 08:55:53;;;;;;;4.60;1.80;;;;;;;;;;5112916;28;20292;-59
2021/08/30 08:58:27;;;;;;;2.97;1.80;;;;;;;;;;5110850;28;20234;-64
2021/08/30 09:01:03;;;;;;;2.07;1.53;;;;;;;;;;5108733;28;20304;-62
2021/08/30 09:03:32;;;;;;;2.43;1.47;;;;;;;;;;5107087;28;20193;-62
2021/08/30 09:06:03;;;;;;;1.67;1.30;;;;;;;;;;5105295;28;20204;-62
2021/08/30 09:08:32;;;;;;;1.43;1.33;;;;;;;;;;5106505;28;20688;-62
2021/08/30 09:11:01;;;;;;;2.00;1.30;;;;;;;;;;5110284;28;20671;-62
2021/08/30 09:13:29;;;;;;;1.83;1.13;;;;;;;;;;5111357;27;20214;-62
2021/08/30 09:15:58;;;;;;;1.20;1.10;;;;;;;;;;5109750;28;20292;-62
2021/08/30 09:18:30;;;;;;;1.50;1.00;;;;;;;;;;5112684;28;20684;-62
2021/08/30 09:21:05;;;;;;;3.17;1.40;;;;;;;;;;5113320;28;20212;-62
2021/08/30 09:23:33;;;;;;;2.10;1.10;;;;;;;;;;5108153;28;20224;-62
2021/08/30 09:26:03;;;;;;;2.90;1.33;;;;;;;;;;5114480;28;20212;-62
2021/08/30 09:28:33;;;;;;;2.60;1.30;;;;;;;;;;5114952;28;20274;-62
2021/08/30 09:31:02;;;;;;;1.00;1.00;;;;;;;;;;5115423;28;20208;-62
2021/08/30 09:33:35;;;;;;;1.57;1.17;;;;;;;;;;5109594;28;20660;-63
2021/08/30 09:36:04;;;;;;;1.30;1.20;;;;;;;;;;5111042;28;20256;-62
2021/08/30 09:38:38;;;;;;;3.00;1.10;;;;;;;;;;5112151;28;20197;-62
2021/08/30 09:41:10;;;;;;;1.27;1.03;;;;;;;;;;5111552;28;20204;-62
2021/08/30 09:43:39;;;;;;;1.90;1.70;;;;;;;;;;5108332;28;20198;-62
2021/08/30 09:46:09;;;;;;;2.07;1.30;;;;;;;;;;5112936;28;20258;-62
2021/08/30 09:48:43;;;;;;;2.23;1.50;;;;;;;;;;5106178;28;20221;-62
2021/08/30 09:51:13;;;;;;;2.40;1.60;;;;;;;;;;5110922;28;20232;-62
2021/08/30 09:53:41;;;;;;;2.03;1.80;;;;;;;;;;5102763;28;20197;-62
2021/08/30 09:56:11;;;;;;;1.57;1.47;;;;;;;;;;5106918;28;20627;-62
2021/08/30 09:58:39;;;;;;;1.60;1.37;;;;;;;;;;5102455;28;20283;-62
2021/08/30 10:01:06;;;;;;;2.03;1.20;;;;;;;;;;5110203;28;20201;-62
2021/08/30 10:03:40;;;;;;;2.17;1.27;;;;;;;;;;5107495;28;20282;-62
2021/08/30 10:06:10;;;;;;;1.23;1.13;;;;;;;;;;5108693;28;20227;-62
2021/08/30 10:08:38;;;;;;;1.23;1.13;;;;;;;;;;5104973;28;20221;-62
2021/08/30 10:11:06;;;;;;;2.43;1.30;;;;;;;;;;5109473;28;20219;-67
2021/08/30 10:13:34;;;;;;;1.70;1.60;;;;;;;;;;5103213;28;20201;-67
2021/08/30 10:16:03;;;;;;;1.97;1.60;;;;;;;;;;5101814;28;20201;-67
2021/08/30 10:18:31;;;;;;;1.90;1.80;;;;;;;;;;5100660;28;20638;-69
2021/08/30 10:20:59;;;;;;;2.10;1.43;;;;;;;;;;5101922;28;20282;-72
2021/08/30 10:23:35;;;;;;;1.97;1.20;;;;;;;;;;5103306;28;20205;-71
2021/08/30 10:26:05;;;;;;;1.63;1.30;;;;;;;;;;5112790;28;20626;-71
2021/08/30 10:28:37;;;;;;;2.10;1.30;;;;;;;;;;5102205;28;20228;-70
2021/08/30 10:31:14;;;;;;;1.20;1.17;;;;;;;;;;5106594;28;20241;-72
2021/08/30 10:33:45;;;;;;;1.73;1.53;;;;;;;;;;5105339;28;20200;-70
2021/08/30 10:36:13;;;;;;;2.00;1.40;;;;;;;;;;5107942;28;20284;-72
2021/08/30 10:38:43;;;;;;;2.43;1.23;;;;;;;;;;5116827;28;20837;-70
2021/08/30 10:41:15;;;;;;;2.40;1.23;;;;;;;;;;5118294;28;20279;-74
2021/08/30 10:43:44;;;;;;;3.90;1.30;;;;;;;;;;5118203;28;20242;-73
2021/08/30 10:46:15;;;;;;;1.40;1.23;;;;;;;;;;5113000;28;20285;-69
2021/08/30 10:48:48;;;;;;;3.30;1.47;;;;;;;;;;5112525;28;20256;-72
2021/08/30 10:51:18;;;;;;;1.17;0.90;;;;;;;;;;5112722;28;20303;-70
2021/08/30 10:53:57;;;;;;;2.67;1.20;;;;;;;;;;5112108;28;20252;-68
2021/08/30 10:56:27;;;;;;;3.87;1.27;;;;;;;;;;5100616;28;20994;-68
2021/08/30 10:58:57;;;;;;;1.97;1.30;;;;;;;;;;5100342;28;20243;-74
2021/08/30 11:01:26;;;;;;;3.47;1.43;;;;;;;;;;5100772;28;20612;-75
2021/08/30 11:03:55;;;;;;;2.03;1.33;;;;;;;;;;5100205;28;20222;-75
2021/08/30 11:06:23;;;;;;;1.47;1.37;;;;;;;;;;5108963;28;20228;-74
2021/08/30 11:08:51;;;;;;;1.40;1.20;;;;;;;;;;5110834;28;20263;-75
2021/08/30 11:11:21;;;;;;;3.90;1.37;;;;;;;;;;5110422;28;20232;-75
2021/08/30 11:14:03;;;;;;;3.13;1.50;;;;;;;;;;5100064;28;20586;-75
2021/08/30 11:16:33;;;;;;;1.83;1.43;;;;;;;;;;5109617;28;20261;-73
2021/08/30 11:19:02;;;;;;;3.33;1.30;;;;;;;;;;5102211;28;20206;-73
2021/08/30 11:21:31;;;;;;;1.97;1.30;;;;;;;;;;5100819;28;20248;-73
2021/08/30 11:23:59;;;;;;;1.43;1.33;;;;;;;;;;5102071;28;20261;-74
2021/08/30 11:26:28;;;;;;;2.27;1.10;;;;;;;;;;5104576;28;20234;-74
2021/08/30 11:28:57;;;;;;;3.37;1.30;;;;;;;;;;5101895;28;20225;-73
2021/08/30 11:31:27;;;;;;;6.70;1.53;;;;;;;;;;5101736;28;20265;-74
2021/08/30 11:33:55;;;;;;;2.60;1.40;;;;;;;;;;5100899;28;20308;-74
2021/08/30 11:36:23;;;;;;;1.50;1.00;;;;;;;;;;5101135;28;20320;-73
2021/08/30 11:38:52;;;;;;;1.53;1.30;;;;;;;;;;5101130;28;20205;-73
2021/08/30 11:41:21;;;;;;;3.23;1.10;;;;;;;;;;5100874;28;20209;-73
2021/08/30 11:43:50;;;;;;;2.37;0.90;;;;;;;;;;5100707;28;20731;-73
2021/08/30 11:46:18;;;;;;;3.13;1.23;;;;;;;;;;5105547;28;20196;-73
2021/08/30 11:48:55;;;;;;;1.60;1.50;;;;;;;;;;5119987;28;20327;-74
2021/08/30 11:51:25;;;;;;;1.67;1.17;;;;;;;;;;5100585;28;20312;-73
2021/08/30 11:53:53;;;;;;;1.40;1.30;;;;;;;;;;5099991;28;20308;-73
2021/08/30 11:56:22;;;;;;;1.30;1.20;;;;;;;;;;5100210;28;20288;-74
2021/08/30 11:58:52;;;;;;;4.27;1.37;;;;;;;;;;5100061;28;20281;-74
2021/08/30 12:01:22;;;;;;;2.83;1.40;;;;;;;;;;5099883;28;20312;-73
2021/08/30 12:03:51;;;;;;;0.97;0.97;;;;;;;;;;5100375;28;20244;-74
2021/08/30 12:06:20;;;;;;;1.17;1.17;;;;;;;;;;5100393;28;20209;-73
2021/08/30 12:08:49;;;;;;;2.33;2.13;;;;;;;;;;5100401;28;20225;-73
2021/08/30 12:11:17;;;;;;;1.40;1.30;;;;;;;;;;5099903;28;20289;-73
2021/08/30 12:13:56;;;;;;;2.07;1.30;;;;;;;;;;5099696;28;20264;-74
2021/08/30 12:16:26;;;;;;;1.80;1.20;;;;;;;;;;5099916;28;20288;-73
2021/08/30 12:18:55;;;;;;;8.17;1.30;;;;;;;;;;5099675;28;20204;-74
2021/08/30 12:21:30;;;;;;;2.47;1.10;;;;;;;;;;5099662;28;20288;-74
2021/08/30 12:23:58;;;;;;;1.37;1.23;;;;;;;;;;5100050;28;20231;-74
2021/08/30 12:26:26;;;;;;;3.67;1.33;;;;;;;;;;5104902;28;20300;-74
2021/08/30 12:28:55;;;;;;;1.40;1.30;;;;;;;;;;5099055;28;20660;-74
2021/08/30 12:31:30;;;;;;;1.67;1.20;;;;;;;;;;5099782;28;20288;-74
2021/08/30 12:34:01;;;;;;;2.00;1.17;;;;;;;;;;5099778;28;20307;-73
2021/08/30 12:36:29;;;;;;;1.80;1.00;;;;;;;;;;5099321;28;20237;-73
2021/08/30 12:38:57;;;;;;;3.50;1.07;;;;;;;;;;5099356;28;20202;-73
2021/08/30 12:41:25;;;;;;;4.43;0.90;;;;;;;;;;5099227;28;20209;-73
2021/08/30 12:43:53;;;;;;;1.10;1.00;;;;;;;;;;5098974;28;20308;-74
2021/08/30 12:46:21;;;;;;;2.20;1.20;;;;;;;;;;5104857;28;20739;-72
2021/08/30 12:48:51;;;;;;;0.87;0.87;;;;;;;;;;5119576;28;20658;-72
2021/08/30 12:51:20;;;;;;;2.27;1.20;;;;;;;;;;5099893;28;20286;-73
2021/08/30 12:53:48;;;;;;;2.30;1.10;;;;;;;;;;5105445;28;20220;-69
2021/08/30 12:56:16;;;;;;;2.00;1.20;;;;;;;;;;5106934;28;20284;-70
2021/08/30 12:58:44;;;;;;;2.97;1.30;;;;;;;;;;5106236;28;20288;-72
2021/08/30 13:01:12;;;;;;;1.50;1.40;;;;;;;;;;5106013;28;20200;-72
2021/08/30 13:03:40;;;;;;;2.40;1.20;;;;;;;;;;5105792;28;20577;-71
2021/08/30 13:06:10;;;;;;;1.10;1.00;;;;;;;;;;5105517;28;20728;-70
2021/08/30 13:08:38;;;;;;;1.37;1.27;;;;;;;;;;5106355;28;20679;-72
2021/08/30 13:11:06;;;;;;;1.70;1.30;;;;;;;;;;5104939;28;20200;-74
2021/08/30 13:13:34;;;;;;;1.43;1.33;;;;;;;;;;5106650;28;20288;-72
2021/08/30 13:16:02;;;;;;;2.47;1.40;;;;;;;;;;5105419;28;20648;-71
2021/08/30 13:18:33;;;;;;;4.00;1.33;;;;;;;;;;5104843;28;20205;-72
2021/08/30 13:21:01;;;;;;;1.27;1.10;;;;;;;;;;5097447;28;20194;-70
2021/08/30 13:23:30;;;;;;;1.60;1.00;;;;;;;;;;5097537;28;20296;-71
2021/08/30 13:26:15;;;;;;;1.20;1.10;;;;;;;;;;5108860;28;20338;-71
2021/08/30 13:28:43;;;;;;;1.07;1.03;;;;;;;;;;5105097;28;20212;-69
2021/08/30 13:31:12;;;;;;;1.40;1.30;;;;;;;;;;5106782;28;20293;-70
2021/08/30 13:33:40;;;;;;;1.40;1.23;;;;;;;;;;5097933;28;20205;-66
2021/08/30 13:36:09;;;;;;;2.13;1.20;;;;;;;;;;5101927;28;20204;-67
2021/08/30 13:38:38;;;;;;;2.00;1.17;;;;;;;;;;5105084;28;20209;-64
2021/08/30 13:41:06;;;;;;;1.67;1.57;;;;;;;;;;5107108;28;20201;-65
2021/08/30 13:43:35;;;;;;;1.57;1.47;;;;;;;;;;5102713;28;20736;-65
2021/08/30 13:46:03;;;;;;;1.33;1.23;;;;;;;;;;5118108;28;20204;-66
2021/08/30 13:48:31;;;;;;;1.70;1.37;;;;;;;;;;5112881;28;20755;-65
2021/08/30 13:50:59;;;;;;;1.33;1.23;;;;;;;;;;5111121;28;20238;-66
2021/08/30 13:53:27;;;;;;;1.43;1.40;;;;;;;;;;5097362;28;20269;-67
2021/08/30 13:55:57;;;;;;;1.27;1.07;;;;;;;;;;5097626;28;20568;-66
2021/08/30 13:58:25;;;;;;;3.93;0.90;;;;;;;;;;5102558;28;20208;-66
2021/08/30 14:01:04;;;;;;;1.23;1.13;;;;;;;;;;5098295;28;20205;-65
2021/08/30 14:03:32;;;;;;;2.50;1.30;;;;;;;;;;5103984;28;20212;-65
2021/08/30 14:06:01;;;;;;;5.23;0.97;;;;;;;;;;5118571;28;20287;-66
2021/08/30 14:08:29;;;;;;;1.30;1.17;;;;;;;;;;5116409;28;20260;-64
2021/08/30 14:11:16;;;;;;;1.10;1.00;;;;;;;;;;5117493;28;20274;-65
2021/08/30 14:13:44;;;;;;;1.77;1.67;;;;;;;;;;5113994;28;20307;-64
2021/08/30 14:16:32;;;;;;;3.07;1.20;;;;;;;;;;5100678;28;20564;-64
2021/08/30 14:19:00;;;;;;;0.90;0.90;;;;;;;;;;5102986;28;20560;-65
2021/08/30 14:21:28;;;;;;;1.37;1.27;;;;;;;;;;5097738;28;20284;-65
2021/08/30 14:23:57;;;;;;;1.73;1.10;;;;;;;;;;5106096;28;20224;-64
2021/08/30 14:26:26;;;;;;;1.80;1.70;;;;;;;;;;5096132;28;20610;-64
2021/08/30 14:28:54;;;;;;;1.83;1.20;;;;;;;;;;5114035;28;20239;-64
2021/08/30 14:31:22;;;;;;;1.43;1.33;;;;;;;;;;5115908;28;20221;-65
2021/08/30 14:33:50;;;;;;;1.57;1.17;;;;;;;;;;5113464;28;20282;-65
2021/08/30 14:36:18;;;;;;;2.00;1.30;;;;;;;;;;5099989;28;20612;-65
2021/08/30 14:38:46;;;;;;;1.30;1.20;;;;;;;;;;5097235;28;20288;-65
2021/08/30 14:41:14;;;;;;;1.23;1.13;;;;;;;;;;5097096;28;20230;-65
2021/08/30 14:43:44;;;;;;;1.53;1.43;;;;;;;;;;5097528;28;20679;-65
2021/08/30 14:46:12;;;;;;;0.93;0.90;;;;;;;;;;5117506;28;20377;-65
2021/08/30 14:48:40;;;;;;;3.97;1.60;;;;;;;;;;5117022;28;20278;-65
2021/08/30 14:51:08;;;;;;;1.80;1.23;;;;;;;;;;5107576;28;20229;-65
2021/08/30 14:53:37;;;;;;;2.07;1.10;;;;;;;;;;5110669;28;20206;-65
2021/08/30 14:56:05;;;;;;;1.10;1.10;;;;;;;;;;5117407;28;20205;-63
2021/08/30 14:58:35;;;;;;;2.37;1.10;;;;;;;;;;5096764;28;20679;-64